KBIS/BIS METAR and TAF weather

Enter ICAO airport designator
Station Type Date Time Source
KBIS METAR 2019/08/22 01:52 UTC NOAA

KBIS 220152Z 14004KT 10SM CLR 18/12 A3005 RMK AO2 SLP176 T01780122


Station Type Date Time Source
KBIS Decoded METAR 2019/08/22 01:52 UTC NOAA

Station name not available
Aug 21, 2019 - 09:52 PM EDT / 2019.08.22 0152 UTC
Wind: from the SE (140 degrees) at 5 MPH (4 KT):0
Visibility: 10 mile(s):0
Sky conditions: clear
Temperature: 64.0 F (17.8 C)
Dew Point: 54.0 F (12.2 C)
Relative Humidity: 69%
Pressure (altimeter): 30.05 in. Hg (1017 hPa)
ob: KBIS 220152Z 14004KT 10SM CLR 18/12 A3005 RMK AO2 SLP176 T01780122
cycle: 2

Station Type Date Time Source
KBIS TAF 2019/08/21 18:36 UTC NOAA

TAF KBIS 211731Z 2118/2218 15003KT P6SM SKC
FM220300 09005KT P6SM SKC
FM221400 12007KT P6SM SKC
FM221700 14014G25KT P6SM SKC

Example: see airport list